Time;durP1;ratioP1;P1;durP2;ratioP2;P2;SDS_P1;SDS_P2;PMS_P1;PMS_P2;Temp;Humidity;BMP_temperature;BMP_pressure;BME280_temperature;BME280_humidity;BME280_pressure;Samples;Min_cycle;Max_cycle;Signal;HPM_P1;HPM_P2
2024/01/24 00:02:03;;;;;;;6.70;3.10;;;12.70;99.90;;;;;;4894021;29;20080;-85
2024/01/24 00:04:30;;;;;;;6.72;2.45;;;12.70;99.90;;;;;;4899156;29;20453;-85
2024/01/24 00:06:57;;;;;;;5.18;2.78;;;12.80;99.90;;;;;;4883467;29;20486;-85
2024/01/24 00:09:24;;;;;;;6.40;2.80;;;12.80;99.90;;;;;;4868037;29;20104;-84
2024/01/24 00:11:51;;;;;;;7.03;2.38;;;12.80;99.90;;;;;;4900072;29;20048;-84
2024/01/24 00:14:18;;;;;;;5.70;2.55;;;12.90;99.90;;;;;;4883169;29;20087;-85
2024/01/24 00:16:45;;;;;;;4.30;2.70;;;12.90;99.90;;;;;;4897704;29;20066;-85
2024/01/24 00:19:12;;;;;;;5.43;2.60;;;12.90;99.90;;;;;;4883359;29;20036;-85
2024/01/24 00:21:40;;;;;;;5.35;2.30;;;13.00;99.90;;;;;;4883253;29;20461;-85
2024/01/24 00:24:07;;;;;;;3.10;1.52;;;13.00;99.90;;;;;;4899728;29;20323;-85
2024/01/24 00:26:37;;;;;;;2.60;1.52;;;13.00;99.90;;;;;;4898531;29;20045;-84
2024/01/24 00:29:04;;;;;;;2.72;1.20;;;13.00;99.90;;;;;;4898516;29;20437;-84
2024/01/24 00:31:31;;;;;;;3.75;1.42;;;13.00;99.90;;;;;;4899606;29;20047;-85
2024/01/24 00:33:58;;;;;;;3.22;1.40;;;13.00;99.90;;;;;;4899517;29;20041;-84
2024/01/24 00:36:25;;;;;;;3.17;1.20;;;13.10;99.90;;;;;;4899494;29;20485;-84
2024/01/24 00:38:53;;;;;;;3.58;1.38;;;13.10;99.90;;;;;;4882820;29;20155;-84
2024/01/24 00:41:19;;;;;;;2.90;1.15;;;13.10;99.90;;;;;;4882759;29;20493;-84
2024/01/24 00:43:46;;;;;;;4.00;1.27;;;13.10;99.90;;;;;;4898001;29;20529;-84
2024/01/24 00:46:14;;;;;;;2.63;0.90;;;13.20;99.90;;;;;;4897994;29;20040;-84
2024/01/24 00:48:41;;;;;;;2.03;1.00;;;13.20;99.90;;;;;;4882624;29;20132;-84
2024/01/24 00:51:08;;;;;;;2.25;0.90;;;13.20;99.90;;;;;;4879517;29;20052;-85
2024/01/24 00:53:37;;;;;;;2.63;1.30;;;13.20;99.90;;;;;;4848250;29;20405;-83
2024/01/24 00:56:05;;;;;;;3.45;1.15;;;13.10;99.90;;;;;;4882130;29;20109;-83
2024/01/24 00:58:32;;;;;;;3.53;0.90;;;13.10;99.90;;;;;;4897774;29;20104;-82
2024/01/24 01:00:59;;;;;;;1.77;0.70;;;13.10;99.90;;;;;;4898896;29;20794;-82
2024/01/24 01:03:26;;;;;;;1.33;0.82;;;13.10;99.90;;;;;;4897617;29;20044;-81
2024/01/24 01:05:53;;;;;;;1.38;0.70;;;13.10;99.90;;;;;;4899015;29;20121;-82
2024/01/24 01:08:20;;;;;;;1.98;0.70;;;13.10;99.90;;;;;;4897336;29;20536;-83
2024/01/24 01:10:47;;;;;;;1.45;0.70;;;13.10;99.90;;;;;;4882075;29;20041;-82
2024/01/24 01:13:14;;;;;;;2.63;0.60;;;13.10;99.90;;;;;;4897578;29;20052;-82
2024/01/24 01:15:41;;;;;;;2.28;0.63;;;13.00;99.90;;;;;;4897467;29;20127;-82
2024/01/24 01:18:09;;;;;;;1.48;0.70;;;13.00;99.90;;;;;;4897470;29;20126;-82
2024/01/24 01:20:36;;;;;;;1.80;0.70;;;13.00;99.90;;;;;;4898550;29;20044;-82
2024/01/24 01:23:03;;;;;;;4.57;0.63;;;13.00;99.90;;;;;;4881934;29;20061;-83
2024/01/24 01:25:32;;;;;;;1.42;0.60;;;12.90;99.90;;;;;;4882175;29;20044;-84
2024/01/24 01:27:59;;;;;;;1.48;0.60;;;12.80;99.90;;;;;;4881663;29;20044;-84
2024/01/24 01:30:29;;;;;;;1.60;0.80;;;12.70;99.90;;;;;;4897554;29;20048;-84
2024/01/24 01:32:55;;;;;;;1.88;0.60;;;12.60;99.90;;;;;;4897632;29;20049;-86
2024/01/24 01:35:23;;;;;;;2.28;0.60;;;12.60;99.90;;;;;;4882865;29;20135;-87
2024/01/24 01:37:50;;;;;;;1.50;0.60;;;12.50;99.90;;;;;;4869056;29;20097;-84
2024/01/24 01:40:17;;;;;;;1.77;0.63;;;12.50;99.90;;;;;;4880383;29;20052;-83
2024/01/24 01:42:44;;;;;;;1.50;0.70;;;12.40;99.90;;;;;;4881639;29;20056;-80
2024/01/24 01:45:12;;;;;;;3.10;0.90;;;12.30;99.90;;;;;;4881665;29;20090;-83
2024/01/24 01:47:40;;;;;;;1.52;0.60;;;12.30;99.90;;;;;;4887358;29;20123;-81
2024/01/24 01:50:14;;;;;;;2.33;0.90;;;12.30;99.90;;;;;;4877287;29;20139;-81
2024/01/24 01:52:42;;;;;;;1.63;0.68;;;12.30;99.90;;;;;;4897325;29;20406;-84
2024/01/24 01:55:11;;;;;;;2.40;1.02;;;12.20;99.90;;;;;;4881607;29;20422;-82
2024/01/24 01:57:43;;;;;;;2.58;0.70;;;12.20;99.90;;;;;;4897380;29;20045;-83
2024/01/24 02:00:19;;;;;;;2.65;1.13;;;12.20;99.90;;;;;;4896952;29;20489;-81
2024/01/24 02:02:50;;;;;;;1.73;1.13;;;12.30;99.90;;;;;;4882328;29;20485;-83
2024/01/24 02:05:18;;;;;;;1.67;1.10;;;12.20;99.90;;;;;;4897130;29;20052;-79
2024/01/24 02:07:45;;;;;;;2.35;1.45;;;12.20;99.90;;;;;;4896538;29;20512;-80
2024/01/24 02:10:14;;;;;;;2.08;1.58;;;12.20;99.90;;;;;;4896586;29;20044;-82
2024/01/24 02:12:41;;;;;;;4.40;1.58;;;12.20;99.90;;;;;;4881156;29;20151;-82
2024/01/24 02:15:09;;;;;;;3.00;1.60;;;12.20;99.90;;;;;;4862840;29;20443;-84
2024/01/24 02:17:36;;;;;;;2.88;1.75;;;12.20;99.90;;;;;;4879123;29;20052;-82
2024/01/24 02:20:08;;;;;;;2.80;2.00;;;12.20;99.90;;;;;;4897530;29;20053;-86
2024/01/24 02:22:34;;;;;;;3.28;2.20;;;12.20;99.90;;;;;;4879004;29;20108;-84
2024/01/24 02:25:02;;;;;;;2.35;1.70;;;12.20;99.90;;;;;;4878852;29;20045;-84
2024/01/24 02:27:29;;;;;;;2.45;1.55;;;12.20;99.90;;;;;;4881739;29;20055;-86
2024/01/24 02:29:57;;;;;;;2.88;1.80;;;12.10;99.90;;;;;;4882258;29;20071;-84
2024/01/24 02:32:24;;;;;;;3.13;2.00;;;12.20;99.90;;;;;;4866347;29;20104;-85
2024/01/24 02:34:51;;;;;;;2.72;1.88;;;12.10;99.90;;;;;;4866364;29;20513;-85
2024/01/24 02:37:20;;;;;;;2.63;1.77;;;12.20;99.90;;;;;;4897099;29;20065;-84
2024/01/24 02:39:48;;;;;;;2.42;1.50;;;12.20;99.90;;;;;;4866865;29;20521;-85
2024/01/24 02:42:15;;;;;;;2.22;1.27;;;12.20;99.90;;;;;;4901530;29;20040;-85
2024/01/24 02:44:42;;;;;;;2.10;1.30;;;12.20;99.90;;;;;;4900571;29;20163;-85
2024/01/24 02:47:09;;;;;;;2.22;1.38;;;12.20;99.90;;;;;;4884282;29;20052;-84
2024/01/24 02:49:36;;;;;;;1.60;1.00;;;12.20;99.90;;;;;;4900359;29;20053;-85
2024/01/24 02:52:04;;;;;;;2.17;0.90;;;12.20;99.90;;;;;;4901729;29;20492;-84
2024/01/24 02:54:31;;;;;;;1.40;0.90;;;12.20;99.90;;;;;;4884638;29;20045;-83
2024/01/24 02:56:58;;;;;;;2.08;1.13;;;12.20;99.90;;;;;;4899934;29;20466;-83
2024/01/24 02:59:25;;;;;;;2.08;1.17;;;12.20;99.90;;;;;;4884310;29;20044;-83
2024/01/24 03:01:52;;;;;;;2.25;1.15;;;12.30;99.90;;;;;;4881645;29;20071;-85
2024/01/24 03:04:19;;;;;;;1.73;1.00;;;12.30;99.90;;;;;;4892286;29;20545;-84
2024/01/24 03:06:47;;;;;;;1.85;0.88;;;12.30;99.90;;;;;;4884460;29;20523;-83
2024/01/24 03:09:14;;;;;;;1.98;0.88;;;12.20;99.90;;;;;;4884540;29;20505;-84
2024/01/24 03:11:41;;;;;;;4.28;1.10;;;12.30;99.90;;;;;;4881261;29;20068;-83
2024/01/24 03:14:09;;;;;;;1.73;0.80;;;12.30;99.90;;;;;;4882121;29;20072;-85
2024/01/24 03:16:36;;;;;;;3.08;0.90;;;12.30;99.90;;;;;;4884419;29;20124;-83
2024/01/24 03:19:05;;;;;;;5.32;1.25;;;12.20;99.90;;;;;;4884234;29;20391;-86
2024/01/24 03:21:32;;;;;;;2.67;0.70;;;12.20;99.90;;;;;;4885376;29;20048;-87
2024/01/24 03:24:00;;;;;;;2.63;1.00;;;12.10;99.90;;;;;;4884720;29;20111;-85
2024/01/24 03:26:27;;;;;;;3.53;1.20;;;12.10;99.90;;;;;;4883988;29;20049;-85
2024/01/24 03:28:54;;;;;;;2.92;0.95;;;12.10;99.90;;;;;;4884519;29;20052;-85
2024/01/24 03:31:21;;;;;;;3.17;1.60;;;12.10;99.90;;;;;;4899719;29;20045;-84
2024/01/24 03:33:48;;;;;;;3.35;1.13;;;12.10;99.90;;;;;;4883509;29;20049;-82
2024/01/24 03:36:17;;;;;;;3.03;1.15;;;12.00;99.90;;;;;;4883741;29;20052;-82
2024/01/24 03:38:44;;;;;;;3.47;0.90;;;12.00;99.90;;;;;;4883971;29;20048;-85
2024/01/24 03:41:11;;;;;;;2.55;0.80;;;11.90;99.90;;;;;;4868898;29;20052;-87
2024/01/24 03:43:39;;;;;;;7.85;1.15;;;11.90;99.90;;;;;;4900179;29;20080;-87
2024/01/24 03:46:06;;;;;;;4.53;1.25;;;11.90;99.90;;;;;;4900047;29;20052;-87
2024/01/24 03:48:33;;;;;;;2.85;0.90;;;11.90;99.90;;;;;;4884695;29;20477;-86
2024/01/24 03:51:01;;;;;;;5.18;0.65;;;11.90;99.90;;;;;;4883873;29;20135;-87
2024/01/24 03:53:28;;;;;;;6.90;0.85;;;11.90;99.90;;;;;;4899878;29;20100;-86
2024/01/24 03:55:55;;;;;;;6.90;0.90;;;11.90;99.90;;;;;;4884156;29;20067;-85
2024/01/24 03:58:21;;;;;;;6.20;0.90;;;11.90;99.90;;;;;;4899549;29;20045;-86
2024/01/24 04:00:50;;;;;;;6.32;0.63;;;11.90;99.90;;;;;;4884159;29;20053;-86
2024/01/24 04:03:17;;;;;;;6.05;0.70;;;11.90;99.90;;;;;;4883963;29;20056;-85
2024/01/24 04:05:44;;;;;;;9.45;1.35;;;11.90;99.90;;;;;;4883723;29;20045;-86
2024/01/24 04:08:11;;;;;;;7.93;1.08;;;11.90;99.90;;;;;;4883287;29;20048;-86
2024/01/24 04:10:38;;;;;;;13.15;1.23;;;12.00;99.90;;;;;;4883641;29;20052;-87
2024/01/24 04:13:08;;;;;;;7.18;0.88;;;11.90;99.90;;;;;;4884036;29;20045;-85
2024/01/24 04:15:35;;;;;;;7.35;0.95;;;12.00;99.90;;;;;;4884242;29;20053;-87
2024/01/24 04:18:02;;;;;;;5.43;0.77;;;12.00;99.90;;;;;;4877587;29;20048;-86
2024/01/24 04:20:29;;;;;;;7.63;1.52;;;12.00;99.90;;;;;;4883837;29;20045;-87
2024/01/24 04:22:56;;;;;;;7.18;1.27;;;11.90;99.90;;;;;;4899364;29;20100;-87
2024/01/24 04:25:23;;;;;;;12.68;2.17;;;11.90;99.90;;;;;;4865301;29;20072;-86
2024/01/24 04:27:50;;;;;;;11.60;1.90;;;11.80;99.90;;;;;;4864950;29;20129;-86
2024/01/24 04:30:17;;;;;;;14.98;2.47;;;11.80;99.90;;;;;;4891336;29;20066;-86
2024/01/24 04:32:45;;;;;;;11.95;1.77;;;11.70;99.90;;;;;;4880375;29;20136;-86
2024/01/24 04:35:12;;;;;;;13.20;2.10;;;11.70;99.90;;;;;;4897511;29;20040;-86
2024/01/24 04:37:39;;;;;;;18.40;2.83;;;11.70;99.90;;;;;;4898738;29;20051;-86
2024/01/24 04:40:07;;;;;;;13.10;2.10;;;11.70;99.90;;;;;;4883179;29;20055;-86
2024/01/24 04:42:34;;;;;;;13.18;1.95;;;11.70;99.90;;;;;;4898396;29;20052;-85
2024/01/24 04:45:01;;;;;;;17.33;3.17;;;11.70;99.90;;;;;;4882975;29;20065;-85
2024/01/24 04:47:28;;;;;;;15.38;2.60;;;11.70;99.90;;;;;;4882795;29;20041;-85
2024/01/24 04:49:56;;;;;;;18.95;2.30;;;11.70;99.90;;;;;;4882894;29;20072;-85
2024/01/24 04:52:23;;;;;;;17.40;2.60;;;11.70;99.90;;;;;;4883137;29;20040;-85
2024/01/24 04:54:51;;;;;;;18.05;2.85;;;11.70;99.90;;;;;;4882636;29;20104;-85
2024/01/24 04:57:18;;;;;;;18.10;2.78;;;11.60;99.90;;;;;;4883092;29;20385;-85
2024/01/24 04:59:45;;;;;;;12.48;2.88;;;11.60;99.90;;;;;;4867183;29;20144;-85
2024/01/24 05:02:22;;;;;;;15.18;3.03;;;11.60;99.90;;;;;;4897749;29;20127;-84
2024/01/24 05:04:49;;;;;;;21.27;3.65;;;11.60;99.90;;;;;;4897440;29;20186;-85
2024/01/24 05:07:16;;;;;;;23.55;3.55;;;11.60;99.90;;;;;;4882326;29;20520;-85
2024/01/24 05:09:44;;;;;;;16.02;2.92;;;11.60;99.90;;;;;;4882361;29;20047;-84
2024/01/24 05:12:11;;;;;;;15.48;3.25;;;11.60;99.90;;;;;;4897494;29;20108;-84
2024/01/24 05:14:38;;;;;;;16.23;2.60;;;11.60;99.90;;;;;;4882139;29;20063;-84
2024/01/24 05:17:06;;;;;;;16.23;3.97;;;11.60;99.90;;;;;;4882109;29;20052;-83
2024/01/24 05:19:33;;;;;;;13.95;2.65;;;11.60;99.90;;;;;;4897266;29;20096;-83
2024/01/24 05:22:00;;;;;;;20.88;4.18;;;11.50;99.90;;;;;;4881997;29;20052;-83
2024/01/24 05:24:27;;;;;;;19.02;3.38;;;11.50;99.90;;;;;;4878780;29;20421;-83
2024/01/24 05:26:54;;;;;;;17.80;2.55;;;11.50;99.90;;;;;;4878758;29;20586;-83
2024/01/24 05:29:21;;;;;;;14.93;3.30;;;11.50;99.90;;;;;;4873264;29;20060;-83
2024/01/24 05:31:48;;;;;;;16.80;3.08;;;11.50;99.90;;;;;;4897085;29;20490;-82
2024/01/24 05:34:15;;;;;;;23.98;3.45;;;11.50;99.90;;;;;;4878343;29;20498;-83
2024/01/24 05:36:42;;;;;;;23.08;3.53;;;11.50;99.90;;;;;;4894267;29;20055;-82
2024/01/24 05:39:10;;;;;;;15.40;2.88;;;11.50;99.90;;;;;;4897371;29;20052;-82
2024/01/24 05:41:37;;;;;;;23.70;4.57;;;11.50;99.90;;;;;;4898012;29;20052;-82
2024/01/24 05:44:04;;;;;;;27.30;4.53;;;11.50;99.90;;;;;;4896694;29;20417;-82
2024/01/24 05:46:31;;;;;;;18.83;4.22;;;11.40;99.90;;;;;;4898115;29;20464;-82
2024/01/24 05:49:00;;;;;;;21.45;4.80;;;11.40;99.90;;;;;;4890639;29;20045;-82
2024/01/24 05:51:28;;;;;;;24.27;4.47;;;11.40;99.90;;;;;;4898134;29;20088;-81
2024/01/24 05:53:56;;;;;;;26.55;5.00;;;11.40;99.90;;;;;;4896855;29;20045;-81
2024/01/24 05:56:23;;;;;;;24.10;4.28;;;11.40;99.90;;;;;;4872876;29;20108;-81
2024/01/24 05:58:50;;;;;;;27.70;4.03;;;11.40;99.90;;;;;;4896702;29;20485;-81
2024/01/24 06:01:17;;;;;;;25.13;4.53;;;11.40;99.90;;;;;;4896795;29;20044;-81
2024/01/24 06:03:44;;;;;;;23.92;4.35;;;11.40;99.90;;;;;;4896617;29;20052;-81
2024/01/24 06:06:11;;;;;;;21.30;3.45;;;11.40;99.90;;;;;;4881131;29;20054;-81
2024/01/24 06:08:39;;;;;;;21.80;4.72;;;11.40;99.90;;;;;;4881168;29;20060;-82
2024/01/24 06:11:07;;;;;;;26.02;4.25;;;11.40;99.90;;;;;;4885128;29;20047;-82
2024/01/24 06:13:34;;;;;;;25.77;4.82;;;11.50;99.90;;;;;;4881162;29;20045;-82
2024/01/24 06:16:01;;;;;;;25.13;4.60;;;11.50;99.90;;;;;;4896680;29;20486;-81
2024/01/24 06:18:28;;;;;;;28.23;5.78;;;11.40;99.90;;;;;;4897747;29;20045;-81
2024/01/24 06:20:56;;;;;;;24.23;4.72;;;11.40;99.60;;;;;;4881308;29;20136;-81
2024/01/24 06:23:23;;;;;;;21.70;3.85;;;11.40;99.60;;;;;;4896495;29;20036;-81
2024/01/24 06:25:50;;;;;;;21.80;5.13;;;11.40;99.80;;;;;;4865744;29;20461;-81
2024/01/24 06:28:17;;;;;;;28.02;5.38;;;11.30;99.70;;;;;;4897440;29;20040;-81
2024/01/24 06:30:44;;;;;;;27.48;6.18;;;11.30;99.60;;;;;;4897480;29;20077;-80
2024/01/24 06:33:12;;;;;;;30.35;4.78;;;11.20;99.40;;;;;;4866183;29;20076;-80
2024/01/24 06:35:39;;;;;;;27.20;4.78;;;11.20;99.60;;;;;;4896375;29;20068;-80
2024/01/24 06:38:06;;;;;;;25.85;5.13;;;11.20;99.80;;;;;;4896420;29;20071;-80
2024/01/24 06:40:36;;;;;;;19.63;4.88;;;11.20;99.80;;;;;;4896512;29;20132;-80
2024/01/24 06:43:03;;;;;;;32.13;5.22;;;11.10;99.90;;;;;;4897484;29;20040;-81
2024/01/24 06:45:30;;;;;;;28.92;5.88;;;11.10;99.90;;;;;;4880652;29;20091;-80
2024/01/24 06:47:58;;;;;;;33.53;4.63;;;11.00;99.90;;;;;;4879837;29;20140;-81
2024/01/24 06:50:25;;;;;;;25.58;4.55;;;11.00;99.90;;;;;;4877593;29;20041;-81
2024/01/24 06:52:52;;;;;;;28.70;5.85;;;10.90;99.90;;;;;;4896236;29;20409;-80
2024/01/24 06:55:20;;;;;;;27.25;5.70;;;10.80;99.90;;;;;;4897093;29;20045;-80
2024/01/24 06:57:47;;;;;;;32.38;7.10;;;10.80;99.90;;;;;;4880791;29;20048;-80
2024/01/24 07:00:15;;;;;;;23.33;4.30;;;10.80;99.90;;;;;;4896233;29;20040;-80
2024/01/24 07:02:42;;;;;;;25.77;5.25;;;10.70;99.90;;;;;;4880856;29;20408;-80
2024/01/24 07:05:09;;;;;;;33.58;6.60;;;10.60;99.90;;;;;;4896197;29;20044;-80
2024/01/24 07:07:37;;;;;;;31.55;5.53;;;10.60;99.90;;;;;;4877607;29;20083;-80
2024/01/24 07:10:05;;;;;;;24.05;6.13;;;10.60;99.90;;;;;;4889525;29;20489;-80
2024/01/24 07:12:32;;;;;;;26.30;5.63;;;10.50;99.90;;;;;;4896009;29;20045;-79
2024/01/24 07:14:59;;;;;;;24.73;5.28;;;10.50;99.90;;;;;;4896008;29;20048;-81
2024/01/24 07:17:26;;;;;;;21.70;4.97;;;10.40;99.90;;;;;;4895894;29;20119;-80
2024/01/24 07:19:53;;;;;;;34.13;5.75;;;10.40;99.90;;;;;;4895658;29;20063;-80
2024/01/24 07:22:20;;;;;;;36.72;6.85;;;10.40;99.90;;;;;;4895597;29;20056;-79
2024/01/24 07:24:47;;;;;;;33.63;5.60;;;10.30;99.70;;;;;;4883621;29;20454;-80
2024/01/24 07:27:14;;;;;;;32.00;5.90;;;10.30;99.60;;;;;;4879094;29;20427;-79
2024/01/24 07:29:41;;;;;;;24.65;5.15;;;10.30;99.40;;;;;;4883536;29;20045;-79
2024/01/24 07:32:09;;;;;;;24.80;5.72;;;10.30;99.40;;;;;;4899263;29;20076;-79
2024/01/24 07:34:38;;;;;;;36.28;6.15;;;10.20;99.40;;;;;;4899024;29;20405;-80
2024/01/24 07:37:07;;;;;;;35.25;6.05;;;10.20;99.20;;;;;;4886309;29;20052;-80
2024/01/24 07:39:35;;;;;;;22.88;4.25;;;10.20;99.00;;;;;;4880680;29;20056;-78
2024/01/24 07:42:02;;;;;;;29.27;5.10;;;10.20;98.90;;;;;;4898924;29;20489;-79
2024/01/24 07:44:29;;;;;;;26.98;4.25;;;10.20;98.90;;;;;;4899059;29;20504;-80
2024/01/24 07:46:58;;;;;;;30.50;5.38;;;10.20;98.90;;;;;;4883320;29;20601;-80
2024/01/24 07:49:25;;;;;;;33.65;5.47;;;10.10;98.90;;;;;;4899926;29;20075;-80
2024/01/24 07:51:52;;;;;;;33.47;6.10;;;10.10;98.80;;;;;;4883196;29;20059;-80
2024/01/24 07:54:22;;;;;;;26.23;5.05;;;10.10;98.70;;;;;;4899982;29;20045;-79
2024/01/24 07:56:49;;;;;;;24.48;4.63;;;10.10;98.80;;;;;;4899647;29;20071;-79
2024/01/24 07:59:16;;;;;;;36.10;7.28;;;10.00;98.90;;;;;;4898683;29;20120;-79
2024/01/24 08:01:48;;;;;;;30.38;6.97;;;10.00;98.60;;;;;;4898659;29;20062;-79
2024/01/24 08:04:16;;;;;;;32.70;7.22;;;10.00;98.50;;;;;;4886769;29;20076;-79
2024/01/24 08:06:47;;;;;;;33.97;6.78;;;10.00;98.50;;;;;;4898647;29;20068;-80
2024/01/24 08:09:15;;;;;;;34.20;5.70;;;10.00;98.20;;;;;;4898442;29;20044;-80
2024/01/24 08:11:43;;;;;;;38.25;6.20;;;10.00;98.10;;;;;;4898512;29;20040;-79
2024/01/24 08:14:10;;;;;;;25.48;6.38;;;10.00;97.70;;;;;;4898611;29;20451;-79
2024/01/24 08:16:38;;;;;;;25.65;6.30;;;10.00;97.60;;;;;;4867183;29;20100;-79
2024/01/24 08:19:05;;;;;;;21.48;6.10;;;10.00;97.60;;;;;;4898331;29;20049;-78
2024/01/24 08:21:33;;;;;;;25.08;4.90;;;10.00;97.60;;;;;;4898493;29;20044;-78
2024/01/24 08:24:00;;;;;;;28.23;5.90;;;10.00;97.60;;;;;;4899488;29;20045;-78
2024/01/24 08:26:27;;;;;;;27.73;6.65;;;10.00;97.10;;;;;;4898162;29;20449;-78
2024/01/24 08:28:54;;;;;;;26.90;5.85;;;10.00;97.10;;;;;;4899180;29;20500;-73
2024/01/24 08:31:21;;;;;;;26.27;5.03;;;10.10;96.50;;;;;;4897985;29;20549;-73
2024/01/24 08:33:48;;;;;;;33.30;5.95;;;10.10;96.50;;;;;;4898981;29;20524;-73
2024/01/24 08:36:18;;;;;;;23.70;5.30;;;10.10;96.20;;;;;;4899110;29;20052;-73
2024/01/24 08:38:46;;;;;;;25.50;4.82;;;10.10;96.30;;;;;;4887720;29;20386;-73
2024/01/24 08:41:13;;;;;;;28.95;6.28;;;10.10;96.50;;;;;;4897562;29;20501;-73
2024/01/24 08:43:40;;;;;;;21.92;5.00;;;10.10;96.10;;;;;;4897657;29;20113;-73
2024/01/24 08:46:07;;;;;;;27.83;4.80;;;10.10;95.90;;;;;;4898857;29;20055;-73
2024/01/24 08:48:34;;;;;;;23.85;5.35;;;10.10;95.50;;;;;;4898657;29;20051;-73
2024/01/24 08:51:01;;;;;;;24.30;5.45;;;10.20;95.60;;;;;;4897434;29;20036;-73
2024/01/24 08:53:28;;;;;;;30.10;6.28;;;10.20;95.70;;;;;;4897470;29;20051;-73
2024/01/24 08:55:56;;;;;;;26.65;4.32;;;10.20;95.40;;;;;;4898413;29;20123;-73
2024/01/24 08:58:23;;;;;;;16.75;4.00;;;10.20;95.50;;;;;;4897450;29;20520;-73
2024/01/24 09:00:51;;;;;;;22.08;4.25;;;10.20;95.60;;;;;;4898495;29;20116;-73
2024/01/24 09:03:19;;;;;;;22.20;4.35;;;10.30;95.60;;;;;;4898344;29;20075;-73
2024/01/24 09:05:47;;;;;;;27.67;6.03;;;10.40;95.10;;;;;;4879645;29;20037;-73
2024/01/24 09:08:16;;;;;;;25.20;4.30;;;10.40;95.20;;;;;;4897026;29;20076;-73
2024/01/24 09:10:43;;;;;;;29.55;6.10;;;10.40;95.00;;;;;;4881477;29;20060;-74
2024/01/24 09:13:10;;;;;;;21.23;5.13;;;10.40;94.80;;;;;;4897224;29;20051;-73
2024/01/24 09:15:38;;;;;;;28.05;5.15;;;10.40;94.80;;;;;;4896925;29;20387;-73
2024/01/24 09:18:08;;;;;;;25.50;4.57;;;10.50;94.70;;;;;;4897014;29;20040;-72
2024/01/24 09:20:36;;;;;;;23.80;4.38;;;10.40;94.50;;;;;;4898032;29;20044;-72
2024/01/24 09:23:03;;;;;;;26.60;5.38;;;10.40;94.60;;;;;;4881147;29;20425;-71
2024/01/24 09:25:30;;;;;;;31.95;5.45;;;10.30;94.60;;;;;;4896657;29;20058;-72
2024/01/24 09:27:57;;;;;;;20.40;4.75;;;10.30;94.60;;;;;;4881262;29;20065;-71
2024/01/24 09:30:25;;;;;;;19.85;4.07;;;10.40;94.60;;;;;;4902948;29;20045;-73
2024/01/24 09:32:52;;;;;;;28.58;4.80;;;10.40;94.60;;;;;;4890680;29;20033;-72
2024/01/24 09:35:19;;;;;;;26.10;5.45;;;10.30;94.50;;;;;;4897665;29;20058;-73
2024/01/24 09:37:46;;;;;;;28.70;4.38;;;10.40;94.60;;;;;;4896619;29;20497;-72
2024/01/24 09:40:17;;;;;;;22.88;4.70;;;10.30;94.50;;;;;;4896513;29;20055;-73
2024/01/24 09:42:44;;;;;;;20.95;5.32;;;10.40;94.50;;;;;;4896502;29;20048;-73
2024/01/24 09:45:17;;;;;;;20.92;4.10;;;10.40;94.70;;;;;;4880578;29;20131;-74
2024/01/24 09:47:49;;;;;;;31.33;5.78;;;10.40;94.70;;;;;;4896421;29;20049;-74
2024/01/24 09:50:16;;;;;;;20.98;4.82;;;10.40;94.20;;;;;;4893293;29;20049;-80
2024/01/24 09:52:45;;;;;;;20.90;4.40;;;10.40;94.00;;;;;;4865968;29;20071;-79
2024/01/24 09:55:16;;;;;;;33.53;5.70;;;10.40;94.30;;;;;;4897730;29;20057;-79
2024/01/24 09:57:47;;;;;;;27.60;4.50;;;10.50;94.10;;;;;;4897825;29;20056;-79
2024/01/24 10:00:15;;;;;;;28.52;5.10;;;10.50;93.80;;;;;;4896427;29;20119;-79
2024/01/24 10:02:46;;;;;;;22.33;5.70;;;10.50;93.70;;;;;;4897663;29;20044;-78
2024/01/24 10:05:17;;;;;;;27.67;5.05;;;10.50;93.60;;;;;;4881051;29;20056;-79
2024/01/24 10:07:45;;;;;;;23.00;3.95;;;10.60;93.60;;;;;;4885007;29;20048;-79
2024/01/24 10:10:15;;;;;;;25.77;6.25;;;10.60;93.60;;;;;;4896267;29;20059;-78
2024/01/24 10:12:42;;;;;;;26.83;4.22;;;10.60;93.40;;;;;;4897650;29;20135;-78
2024/01/24 10:15:10;;;;;;;27.85;4.90;;;10.60;93.40;;;;;;4896645;29;20048;-77
2024/01/24 10:17:42;;;;;;;30.70;6.25;;;10.70;93.60;;;;;;4896589;29;20045;-78
2024/01/24 10:20:11;;;;;;;28.97;6.53;;;10.70;93.20;;;;;;4896364;29;20060;-78
2024/01/24 10:22:40;;;;;;;24.30;3.90;;;10.70;93.00;;;;;;4896449;29;20830;-77
2024/01/24 10:25:09;;;;;;;23.58;5.10;;;10.80;92.90;;;;;;4896240;29;20104;-78
2024/01/24 10:27:41;;;;;;;16.27;3.58;;;10.80;93.10;;;;;;4881003;29;20096;-79
2024/01/24 10:30:11;;;;;;;20.13;5.28;;;10.80;93.00;;;;;;4896062;29;20120;-79
2024/01/24 10:32:45;;;;;;;25.10;5.13;;;10.90;93.00;;;;;;4880971;29;20451;-79
2024/01/24 10:35:14;;;;;;;26.13;5.50;;;11.00;92.80;;;;;;4880681;29;20052;-78
2024/01/24 10:37:44;;;;;;;28.25;4.97;;;11.00;92.50;;;;;;4862424;29;20045;-78
2024/01/24 10:40:16;;;;;;;22.05;4.50;;;11.10;92.40;;;;;;4875618;29;20116;-80
2024/01/24 10:42:45;;;;;;;20.38;4.75;;;11.10;92.20;;;;;;4862593;29;20053;-78
2024/01/24 10:45:15;;;;;;;30.23;6.03;;;11.10;92.40;;;;;;4896237;29;20076;-78
2024/01/24 10:47:43;;;;;;;26.00;4.15;;;11.00;92.20;;;;;;4881220;29;20058;-79
2024/01/24 10:50:12;;;;;;;28.85;4.85;;;11.00;92.30;;;;;;4896179;29;20516;-79
2024/01/24 10:52:42;;;;;;;18.70;4.22;;;11.00;92.00;;;;;;4877752;29;20049;-78
2024/01/24 10:55:11;;;;;;;26.10;5.43;;;11.10;92.20;;;;;;4878397;29;20117;-79
2024/01/24 10:57:43;;;;;;;24.48;3.80;;;11.10;92.10;;;;;;4896298;29;20049;-79
2024/01/24 11:00:11;;;;;;;17.08;3.55;;;11.10;92.20;;;;;;4880426;29;20056;-80
2024/01/24 11:02:41;;;;;;;23.52;5.80;;;11.00;92.00;;;;;;4899847;29;20110;-81
2024/01/24 11:05:18;;;;;;;25.60;5.20;;;11.10;91.80;;;;;;4900375;29;20108;-81
2024/01/24 11:08:06;;;;;;;26.88;4.90;;;11.10;91.70;;;;;;4899766;29;20049;-82
2024/01/24 11:10:38;;;;;;;27.48;5.32;;;11.20;91.60;;;;;;4899601;29;20048;-78
2024/01/24 11:13:05;;;;;;;25.33;4.50;;;11.20;91.30;;;;;;4900870;29;20485;-79
2024/01/24 11:15:34;;;;;;;29.40;4.72;;;11.10;91.40;;;;;;4899493;29;20588;-79
2024/01/24 11:18:22;;;;;;;26.23;5.15;;;11.10;91.10;;;;;;4899600;29;20041;-80
2024/01/24 11:20:54;;;;;;;20.85;3.75;;;11.10;91.30;;;;;;4899713;29;20049;-80
2024/01/24 11:23:35;;;;;;;25.52;5.40;;;11.10;91.40;;;;;;4899350;29;20147;-81
2024/01/24 11:26:02;;;;;;;20.92;4.80;;;11.10;91.30;;;;;;4883663;29;20152;-79
2024/01/24 11:28:29;;;;;;;18.15;3.75;;;11.10;91.40;;;;;;4900471;29;20052;-80
2024/01/24 11:30:56;;;;;;;23.30;5.18;;;11.00;91.40;;;;;;4883682;29;20044;-79
2024/01/24 11:33:23;;;;;;;23.23;4.68;;;11.10;91.50;;;;;;4899239;29;20041;-80
2024/01/24 11:35:53;;;;;;;25.25;4.45;;;11.10;91.30;;;;;;4868430;29;20139;-79
2024/01/24 11:38:23;;;;;;;28.58;4.45;;;11.20;91.20;;;;;;4899267;29;20040;-80
2024/01/24 11:41:02;;;;;;;19.40;4.80;;;11.20;91.20;;;;;;4899115;29;20451;-80
2024/01/24 11:43:34;;;;;;;23.00;4.68;;;11.20;91.20;;;;;;4900574;29;20100;-80
2024/01/24 11:46:07;;;;;;;22.02;4.53;;;11.20;91.10;;;;;;4900228;29;20104;-79
2024/01/24 11:48:37;;;;;;;17.85;4.18;;;11.20;91.10;;;;;;4899129;29;20044;-80
2024/01/24 11:51:08;;;;;;;25.42;4.55;;;11.20;91.20;;;;;;4899016;29;20041;-80
2024/01/24 11:53:36;;;;;;;17.23;4.22;;;11.20;91.40;;;;;;4883228;29;20482;-80
2024/01/24 11:56:21;;;;;;;25.70;3.85;;;11.10;91.50;;;;;;4899963;29;20064;-80
2024/01/24 11:58:50;;;;;;;21.42;4.03;;;11.20;91.60;;;;;;4899740;29;20493;-80
2024/01/24 12:01:17;;;;;;;25.27;4.53;;;11.10;91.50;;;;;;4898485;29;20502;-79
2024/01/24 12:03:48;;;;;;;20.95;3.63;;;11.20;91.30;;;;;;4898439;29;20561;-81
2024/01/24 12:06:17;;;;;;;20.75;4.35;;;11.20;91.40;;;;;;4899805;29;20107;-78
2024/01/24 12:08:47;;;;;;;20.00;5.15;;;11.30;91.50;;;;;;4898603;29;20053;-80
2024/01/24 12:11:17;;;;;;;20.25;5.13;;;11.40;91.40;;;;;;4883564;29;20045;-79
2024/01/24 12:13:45;;;;;;;20.95;4.20;;;11.40;91.20;;;;;;4899527;29;20101;-83
2024/01/24 12:16:18;;;;;;;20.90;3.67;;;11.50;91.10;;;;;;4892842;29;20049;-82
2024/01/24 12:18:46;;;;;;;19.38;4.45;;;11.60;91.00;;;;;;4896539;29;20045;-78
2024/01/24 12:21:14;;;;;;;18.10;3.28;;;11.60;91.40;;;;;;4882886;29;20143;-79
2024/01/24 12:23:42;;;;;;;18.92;3.60;;;11.60;91.00;;;;;;4867423;29;20049;-83
2024/01/24 12:26:10;;;;;;;19.38;3.97;;;11.60;90.70;;;;;;4898063;29;20079;-79
2024/01/24 12:28:37;;;;;;;22.20;3.95;;;11.60;90.60;;;;;;4882631;29;20052;-78
2024/01/24 12:31:04;;;;;;;24.77;3.90;;;11.60;90.40;;;;;;4898041;29;20072;-80
2024/01/24 12:33:33;;;;;;;20.30;4.32;;;11.60;90.20;;;;;;4899298;29;20167;-80
2024/01/24 12:36:04;;;;;;;21.15;3.60;;;11.60;90.20;;;;;;4879212;29;20040;-79
2024/01/24 12:38:34;;;;;;;18.33;3.40;;;11.60;89.70;;;;;;4897242;29;20050;-79
2024/01/24 12:41:01;;;;;;;15.65;3.60;;;11.60;90.00;;;;;;4882496;29;20461;-79
2024/01/24 12:43:29;;;;;;;26.52;4.78;;;11.60;90.00;;;;;;4897974;29;20100;-79
2024/01/24 12:46:03;;;;;;;19.10;3.97;;;11.60;89.90;;;;;;4882409;29;20556;-79